createdAt,value
2018-02-19T00:01:14.228Z,19.93
2018-02-19T00:03:42.595Z,13.37
2018-02-19T00:06:10.957Z,14.70
2018-02-19T00:08:39.724Z,16.90
2018-02-19T00:11:08.082Z,14.43
2018-02-19T00:13:36.456Z,20.13
2018-02-19T00:16:04.812Z,18.73
2018-02-19T00:18:33.216Z,17.40
2018-02-19T00:21:01.588Z,13.80
2018-02-19T00:23:30.002Z,17.40
2018-02-19T00:25:58.359Z,12.40
2018-02-19T00:28:26.732Z,18.53
2018-02-19T00:30:55.102Z,20.57
2018-02-19T00:33:23.499Z,14.73
2018-02-19T00:35:51.875Z,16.60
2018-02-19T00:38:20.261Z,19.70
2018-02-19T00:40:48.625Z,13.10
2018-02-19T00:43:16.997Z,19.17
2018-02-19T00:45:45.409Z,21.83
2018-02-19T00:48:13.820Z,15.10
2018-02-19T00:50:42.188Z,11.33
2018-02-19T00:53:10.947Z,15.70
2018-02-19T00:55:39.302Z,15.70
2018-02-19T00:58:07.678Z,11.67
2018-02-19T01:00:36.053Z,12.33
2018-02-19T01:03:04.425Z,17.00
2018-02-19T01:05:32.780Z,11.97
2018-02-19T01:08:01.159Z,13.07
2018-02-19T01:10:29.520Z,12.20
2018-02-19T01:12:58.293Z,10.93
2018-02-19T01:15:26.652Z,15.20
2018-02-19T01:17:55.025Z,16.20
2018-02-19T01:20:23.392Z,14.93
2018-02-19T01:22:51.765Z,14.70
2018-02-19T01:25:20.121Z,17.17
2018-02-19T01:27:48.481Z,19.63
2018-02-19T01:30:17.265Z,12.17
2018-02-19T01:32:46.035Z,24.40
2018-02-19T01:35:14.493Z,15.30
2018-02-19T01:37:42.860Z,12.60
2018-02-19T01:40:11.251Z,14.73
2018-02-19T01:42:40.249Z,14.13
2018-02-19T01:45:08.645Z,14.43
2018-02-19T01:47:37.045Z,14.80
2018-02-19T01:50:16.695Z,14.00
2018-02-19T01:52:45.508Z,10.90
2018-02-19T01:55:13.885Z,13.03
2018-02-19T01:57:42.288Z,9.90
2018-02-19T02:00:10.669Z,11.00
2018-02-19T02:02:39.040Z,15.40
2018-02-19T02:05:07.405Z,12.50
2018-02-19T02:07:35.761Z,12.80
2018-02-19T02:10:04.114Z,9.90
2018-02-19T02:12:32.929Z,17.90
2018-02-19T02:15:01.323Z,10.30
2018-02-19T02:20:04.426Z,13.80
2018-02-19T02:22:32.788Z,12.50
2018-02-19T02:25:01.537Z,10.90
2018-02-19T02:27:29.940Z,13.23
2018-02-19T02:29:58.360Z,10.10
2018-02-19T02:32:26.701Z,9.87
2018-02-19T02:34:55.477Z,9.87
2018-02-19T02:37:23.816Z,14.13
2018-02-19T02:39:52.177Z,12.47
2018-02-19T02:42:20.555Z,10.60
2018-02-19T02:44:48.913Z,12.50
2018-02-19T02:47:17.678Z,11.13
2018-02-19T02:49:46.061Z,11.07
2018-02-19T02:52:14.409Z,10.40
2018-02-19T02:54:42.776Z,11.07
2018-02-19T02:57:11.150Z,10.93
2018-02-19T02:59:39.517Z,11.10
2018-02-19T03:02:08.010Z,12.83
2018-02-19T03:04:36.408Z,12.03
2018-02-19T03:07:04.784Z,16.47
2018-02-19T03:09:33.129Z,9.97
2018-02-19T03:12:01.504Z,11.17
2018-02-19T03:14:29.868Z,11.57
2018-02-19T03:16:58.633Z,10.33
2018-02-19T03:19:27.417Z,15.60
2018-02-19T03:21:55.773Z,11.93
2018-02-19T03:24:24.166Z,15.50
2018-02-19T03:26:53.421Z,12.33
2018-02-19T03:29:21.832Z,16.03
2018-02-19T03:31:50.220Z,16.77
2018-02-19T03:34:18.576Z,14.90
2018-02-19T03:36:46.960Z,10.53
2018-02-19T03:39:15.325Z,12.00
2018-02-19T03:41:43.679Z,9.63
2018-02-19T03:44:12.046Z,13.23
2018-02-19T03:46:40.822Z,11.03
2018-02-19T03:49:09.580Z,15.50
2018-02-19T03:51:37.940Z,13.20
2018-02-19T03:54:06.315Z,11.40
2018-02-19T03:56:34.707Z,14.60
2018-02-19T03:59:03.065Z,19.47
2018-02-19T04:01:31.443Z,17.53
2018-02-19T04:03:59.801Z,21.43
2018-02-19T04:06:28.586Z,18.23
2018-02-19T04:08:57.367Z,11.90
2018-02-19T04:11:25.811Z,12.00
2018-02-19T04:13:54.225Z,15.80
2018-02-19T04:16:22.567Z,14.47
2018-02-19T04:18:59.497Z,17.30
2018-02-19T04:21:27.924Z,17.80
2018-02-19T04:23:56.303Z,12.83
2018-02-19T04:26:24.680Z,15.97
2018-02-19T04:28:53.159Z,16.73
2018-02-19T04:31:21.514Z,14.77
2018-02-19T04:33:49.880Z,17.73
2018-02-19T04:36:18.249Z,14.10
2018-02-19T04:38:47.028Z,15.90
2018-02-19T04:41:16.073Z,28.60
2018-02-19T04:43:44.438Z,17.70
2018-02-19T04:46:12.982Z,19.63
2018-02-19T04:48:41.746Z,17.43
2018-02-19T04:51:10.216Z,20.23
2018-02-19T04:53:39.529Z,21.10
2018-02-19T04:56:07.893Z,18.80
2018-02-19T04:58:36.497Z,23.30
2018-02-19T05:01:04.869Z,18.20
2018-02-19T05:03:33.232Z,17.57
2018-02-19T05:06:01.611Z,20.60
2018-02-19T05:08:29.990Z,21.00
2018-02-19T05:10:58.370Z,17.97
2018-02-19T05:13:26.744Z,21.77
2018-02-19T05:15:55.231Z,20.30
2018-02-19T05:18:23.610Z,17.80
2018-02-19T05:20:51.980Z,17.20
2018-02-19T05:23:20.477Z,28.17
2018-02-19T05:25:48.840Z,19.03
2018-02-19T05:28:17.203Z,22.20
2018-02-19T05:30:45.584Z,21.87
2018-02-19T05:33:13.961Z,23.87
2018-02-19T05:35:42.308Z,17.23
2018-02-19T05:38:11.152Z,18.57
2018-02-19T05:40:39.574Z,21.07
2018-02-19T05:43:08.415Z,22.73
2018-02-19T05:45:36.936Z,31.63
2018-02-19T05:48:05.692Z,22.00
2018-02-19T05:50:34.213Z,16.87
2018-02-19T05:53:03.056Z,19.90
2018-02-19T05:55:31.438Z,26.43
2018-02-19T05:57:59.811Z,27.53
2018-02-19T06:00:28.204Z,24.17
2018-02-19T06:02:56.574Z,29.10
2018-02-19T06:05:25.954Z,34.07
2018-02-19T06:07:54.350Z,24.97
2018-02-19T06:10:22.708Z,24.07
2018-02-19T06:12:51.076Z,31.50
2018-02-19T06:15:19.507Z,28.30
2018-02-19T06:17:47.867Z,22.70
2018-02-19T06:20:16.245Z,34.97
2018-02-19T06:22:44.671Z,23.27
2018-02-19T06:25:13.524Z,23.73
2018-02-19T06:27:41.998Z,27.13
2018-02-19T06:30:10.380Z,30.73
2018-02-19T06:32:38.752Z,23.10
2018-02-19T06:35:07.213Z,38.17
2018-02-19T06:37:35.568Z,32.80
2018-02-19T06:40:04.421Z,24.03
2018-02-19T06:42:32.895Z,28.30
2018-02-19T06:45:01.257Z,31.43
2018-02-19T06:47:29.655Z,30.40
2018-02-19T06:49:58.020Z,25.23
2018-02-19T06:52:26.506Z,38.50
2018-02-19T06:54:54.880Z,28.63
2018-02-19T06:57:23.249Z,26.70
2018-02-19T06:59:51.638Z,31.50
2018-02-19T07:02:20.020Z,28.97
2018-02-19T07:04:48.699Z,26.90
2018-02-19T07:07:17.095Z,32.07
2018-02-19T07:09:45.503Z,23.33
2018-02-19T07:12:14.026Z,26.63
2018-02-19T07:14:42.409Z,27.20
2018-02-19T07:17:10.816Z,33.00
2018-02-19T07:19:40.210Z,36.73
2018-02-19T07:22:08.581Z,30.73
2018-02-19T07:24:36.937Z,24.33
2018-02-19T07:27:05.314Z,30.83
2018-02-19T07:29:33.664Z,30.20
2018-02-19T07:32:02.432Z,34.70
2018-02-19T07:34:30.813Z,29.20
2018-02-19T07:36:59.585Z,37.33
2018-02-19T07:39:28.486Z,32.87
2018-02-19T07:41:57.265Z,28.97
2018-02-19T07:44:25.649Z,32.07
2018-02-19T07:46:54.019Z,30.97
2018-02-19T07:49:22.385Z,35.13
2018-02-19T07:51:51.800Z,38.43
2018-02-19T07:54:20.177Z,32.30
2018-02-19T07:56:48.533Z,39.87
2018-02-19T07:59:16.902Z,29.00
2018-02-19T08:01:45.253Z,33.47
2018-02-19T08:04:13.635Z,42.07
2018-02-19T08:06:42.514Z,34.40
2018-02-19T08:09:10.956Z,32.23
2018-02-19T08:11:39.336Z,25.93
2018-02-19T08:14:07.811Z,28.80
2018-02-19T08:16:36.222Z,41.07
2018-02-19T08:19:04.587Z,38.30
2018-02-19T08:21:32.951Z,43.70
2018-02-19T08:24:01.341Z,27.20
2018-02-19T08:26:29.691Z,34.63
2018-02-19T08:28:58.044Z,36.07
2018-02-19T08:31:26.800Z,35.50
2018-02-19T08:33:55.268Z,31.47
2018-02-19T08:36:23.642Z,33.67
2018-02-19T08:38:53.067Z,36.80
2018-02-19T08:41:21.459Z,38.07
2018-02-19T08:43:50.242Z,29.13
2018-02-19T08:46:18.705Z,43.77
2018-02-19T08:48:47.091Z,42.33
2018-02-19T08:51:15.632Z,38.87
2018-02-19T08:53:44.007Z,27.87
2018-02-19T08:56:12.381Z,30.00
2018-02-19T08:58:40.733Z,24.03
2018-02-19T09:01:09.904Z,22.00
2018-02-19T09:03:38.276Z,28.40
2018-02-19T09:06:06.654Z,32.67
2018-02-19T09:08:35.039Z,24.53
2018-02-19T09:11:03.393Z,29.43
2018-02-19T09:13:31.795Z,29.73
2018-02-19T09:16:00.160Z,23.33
2018-02-19T09:18:28.552Z,32.10
2018-02-19T09:20:56.912Z,38.20
2018-02-19T09:23:25.398Z,27.83
2018-02-19T09:25:53.834Z,34.93
2018-02-19T09:28:22.257Z,31.70
2018-02-19T09:30:51.045Z,26.77
2018-02-19T09:33:19.425Z,29.57
2018-02-19T09:35:47.840Z,27.93
2018-02-19T09:38:16.596Z,32.20
2018-02-19T09:40:44.964Z,34.73
2018-02-19T09:43:13.357Z,28.23
2018-02-19T09:45:41.724Z,33.67
2018-02-19T09:48:10.136Z,28.03
2018-02-19T09:50:38.692Z,28.03
2018-02-19T09:53:07.080Z,29.53
2018-02-19T09:55:35.440Z,34.43
2018-02-19T09:58:03.824Z,27.33
2018-02-19T10:00:32.199Z,35.17
2018-02-19T10:03:00.609Z,25.53
2018-02-19T10:05:29.017Z,28.90
2018-02-19T10:07:57.459Z,29.70
2018-02-19T10:10:25.816Z,32.40
2018-02-19T10:12:54.179Z,27.73
2018-02-19T10:15:22.577Z,28.17
2018-02-19T10:17:50.938Z,27.63
2018-02-19T10:20:19.309Z,28.60
2018-02-19T10:22:47.703Z,25.70
2018-02-19T10:25:16.064Z,25.57
2018-02-19T10:27:44.451Z,26.93
2018-02-19T10:30:12.860Z,25.10
2018-02-19T10:32:41.933Z,24.50
2018-02-19T10:35:10.308Z,24.53
2018-02-19T10:37:38.673Z,30.43
2018-02-19T10:40:07.077Z,32.63
2018-02-19T10:42:35.436Z,30.73
2018-02-19T10:45:03.810Z,23.80
2018-02-19T10:47:32.229Z,28.80
2018-02-19T10:50:00.607Z,26.87
2018-02-19T10:52:28.977Z,24.07
2018-02-19T10:54:57.354Z,25.67
2018-02-19T10:57:25.733Z,26.20
2018-02-19T10:59:54.108Z,36.70
2018-02-19T11:02:23.037Z,24.40
2018-02-19T11:04:51.411Z,25.30
2018-02-19T11:07:20.194Z,25.47
2018-02-19T11:09:48.577Z,23.27
2018-02-19T11:12:16.936Z,25.93
2018-02-19T11:14:45.314Z,26.37
2018-02-19T11:17:13.691Z,26.80
2018-02-19T11:19:42.055Z,25.00
2018-02-19T11:22:10.470Z,24.07
2018-02-19T11:24:38.835Z,28.57
2018-02-19T11:27:07.312Z,23.10
2018-02-19T11:29:35.700Z,30.63
2018-02-19T11:32:04.080Z,21.70
2018-02-19T11:34:32.451Z,30.70
2018-02-19T11:37:00.957Z,22.67
2018-02-19T11:39:29.324Z,27.27
2018-02-19T11:41:57.686Z,30.27
2018-02-19T11:44:26.081Z,27.43
2018-02-19T11:46:54.447Z,26.20
2018-02-19T11:49:22.908Z,25.23
2018-02-19T11:51:51.302Z,21.07
2018-02-19T11:54:19.692Z,27.13
2018-02-19T11:56:48.073Z,21.17
2018-02-19T11:59:16.436Z,28.57
2018-02-19T12:01:44.814Z,27.00
2018-02-19T12:04:13.196Z,29.43
2018-02-19T12:06:41.571Z,25.90
2018-02-19T12:09:09.949Z,25.60
2018-02-19T12:11:38.337Z,28.10
2018-02-19T12:14:06.707Z,22.63
2018-02-19T12:16:35.073Z,29.67
2018-02-19T12:19:03.440Z,20.50
2018-02-19T12:21:31.810Z,23.87
2018-02-19T12:24:00.196Z,25.40
2018-02-19T12:26:28.560Z,23.77
2018-02-19T12:28:56.920Z,23.07
2018-02-19T12:31:25.693Z,28.30
2018-02-19T12:33:54.055Z,24.93
2018-02-19T12:36:22.424Z,25.27
2018-02-19T12:38:50.800Z,24.37
2018-02-19T12:41:20.207Z,36.00
2018-02-19T12:43:48.571Z,24.97
2018-02-19T12:46:16.941Z,36.67
2018-02-19T12:48:45.300Z,21.53
2018-02-19T12:51:13.670Z,24.20
2018-02-19T12:53:42.452Z,36.40
2018-02-19T12:56:11.200Z,21.13
2018-02-19T12:58:39.568Z,21.60
2018-02-19T13:01:07.928Z,31.07
2018-02-19T13:03:36.300Z,22.50
2018-02-19T13:06:04.665Z,25.57
2018-02-19T13:08:33.421Z,27.83
2018-02-19T13:11:01.792Z,35.30
2018-02-19T13:13:30.170Z,28.33
2018-02-19T13:15:58.550Z,30.63
2018-02-19T13:18:26.912Z,29.73
2018-02-19T13:20:55.277Z,29.67
2018-02-19T13:23:23.653Z,31.97
2018-02-19T13:25:52.016Z,39.00
2018-02-19T13:28:20.363Z,26.07
2018-02-19T13:30:49.141Z,27.53
2018-02-19T13:33:17.604Z,23.40
2018-02-19T13:35:45.957Z,19.87
2018-02-19T13:38:14.359Z,21.93
2018-02-19T13:40:42.713Z,21.60
2018-02-19T13:43:11.068Z,18.63
2018-02-19T13:45:40.384Z,20.23
2018-02-19T13:48:08.749Z,16.17
2018-02-19T13:50:37.128Z,18.53
2018-02-19T13:53:05.490Z,23.20
2018-02-19T13:55:34.264Z,18.27
2018-02-19T13:58:02.644Z,20.40
2018-02-19T14:00:31.003Z,16.70
2018-02-19T14:02:59.368Z,16.07
2018-02-19T14:05:27.749Z,18.10
2018-02-19T14:07:56.181Z,18.93
2018-02-19T14:10:24.936Z,20.97
2018-02-19T14:12:53.321Z,18.57
2018-02-19T14:15:21.680Z,21.97
2018-02-19T14:17:50.047Z,22.67
2018-02-19T14:20:18.421Z,32.20
2018-02-19T14:22:46.785Z,20.73
2018-02-19T14:25:15.224Z,18.90
2018-02-19T14:27:43.989Z,18.60
2018-02-19T14:30:12.378Z,26.90
2018-02-19T14:32:42.232Z,22.20
2018-02-19T14:35:10.601Z,21.10
2018-02-19T14:37:39.371Z,22.73
2018-02-19T14:40:07.745Z,17.00
2018-02-19T14:42:36.123Z,26.03
2018-02-19T14:45:04.476Z,18.83
2018-02-19T14:47:32.837Z,17.80
2018-02-19T14:50:01.221Z,22.30
2018-02-19T14:52:29.593Z,18.20
2018-02-19T14:54:57.980Z,22.43
2018-02-19T14:57:26.341Z,18.90
2018-02-19T14:59:54.732Z,26.93
2018-02-19T15:02:23.098Z,18.80
2018-02-19T15:04:51.471Z,21.30
2018-02-19T15:07:19.865Z,22.47
2018-02-19T15:09:48.233Z,19.73
2018-02-19T15:12:16.585Z,23.73
2018-02-19T15:14:45.344Z,22.60
2018-02-19T15:17:13.712Z,27.70
2018-02-19T15:19:42.108Z,29.43
2018-02-19T15:22:10.504Z,27.80
2018-02-19T15:24:38.864Z,28.90
2018-02-19T15:27:07.252Z,22.13
2018-02-19T15:29:35.643Z,25.13
2018-02-19T15:32:04.415Z,35.47
2018-02-19T15:34:32.813Z,23.87
2018-02-19T15:37:01.560Z,37.40
2018-02-19T15:39:29.924Z,28.03
2018-02-19T15:41:58.322Z,29.60
2018-02-19T15:44:26.712Z,25.67
2018-02-19T15:46:55.078Z,35.33
2018-02-19T15:49:23.518Z,22.83
2018-02-19T15:51:51.845Z,27.00
2018-02-19T15:54:20.226Z,23.50
2018-02-19T15:56:48.589Z,23.60
2018-02-19T15:59:16.948Z,26.67
2018-02-19T16:01:45.335Z,35.80
2018-02-19T16:04:13.698Z,24.37
2018-02-19T16:06:42.059Z,25.97
2018-02-19T16:09:10.432Z,25.40
2018-02-19T16:11:39.202Z,30.13
2018-02-19T16:14:07.564Z,28.63
2018-02-19T16:16:36.267Z,29.07
2018-02-19T16:19:04.661Z,26.20
2018-02-19T16:21:33.413Z,24.10
2018-02-19T16:24:01.878Z,24.80
2018-02-19T16:26:30.258Z,22.57
2018-02-19T16:28:58.636Z,33.17
2018-02-19T16:31:27.011Z,34.30
2018-02-19T16:33:55.389Z,28.73
2018-02-19T16:36:23.809Z,22.50
2018-02-19T16:38:52.157Z,31.67
2018-02-19T16:41:20.532Z,30.80
2018-02-19T16:43:48.888Z,30.13
2018-02-19T16:46:17.257Z,28.60
2018-02-19T16:48:45.637Z,28.03
2018-02-19T16:51:13.984Z,29.87
2018-02-19T16:53:42.743Z,26.10
2018-02-19T16:56:11.234Z,30.10
2018-02-19T16:58:39.605Z,27.80
2018-02-19T17:01:07.969Z,43.20
2018-02-19T17:03:37.257Z,27.30
2018-02-19T17:06:05.651Z,28.60
2018-02-19T17:08:34.002Z,26.97
2018-02-19T17:11:02.404Z,44.30
2018-02-19T17:13:30.784Z,27.57
2018-02-19T17:15:59.144Z,38.93
2018-02-19T17:18:27.624Z,35.00
2018-02-19T17:20:56.008Z,30.80
2018-02-19T17:23:24.402Z,43.40
2018-02-19T17:25:52.862Z,28.33
2018-02-19T17:28:21.237Z,29.23
2018-02-19T17:30:49.608Z,33.20
2018-02-19T17:33:18.020Z,34.00
2018-02-19T17:35:51.228Z,35.43
2018-02-19T17:38:19.602Z,46.13
2018-02-19T17:40:47.952Z,35.27
2018-02-19T17:43:16.320Z,37.93
2018-02-19T17:45:44.723Z,48.03
2018-02-19T17:48:13.116Z,38.00
2018-02-19T17:50:41.462Z,40.07
2018-02-19T17:53:09.843Z,48.40
2018-02-19T17:55:38.195Z,35.70
2018-02-19T17:58:06.944Z,49.70
2018-02-19T18:00:35.328Z,37.00
2018-02-19T18:03:03.683Z,47.93
2018-02-19T18:05:32.036Z,64.77
2018-02-19T18:08:00.427Z,48.07
2018-02-19T18:10:28.784Z,46.80
2018-02-19T18:12:57.144Z,50.23
2018-02-19T18:15:25.537Z,38.93
2018-02-19T18:17:54.346Z,43.47
2018-02-19T18:20:22.797Z,40.77
2018-02-19T18:22:51.655Z,60.00
2018-02-19T18:25:20.054Z,39.23
2018-02-19T18:27:48.424Z,48.57
2018-02-19T18:30:16.905Z,40.63
2018-02-19T18:32:45.272Z,45.83
2018-02-19T18:35:13.648Z,41.40
2018-02-19T18:37:42.040Z,50.53
2018-02-19T18:40:10.522Z,38.23
2018-02-19T18:42:39.063Z,40.73
2018-02-19T18:45:07.428Z,42.20
2018-02-19T18:47:35.815Z,42.97
2018-02-19T18:50:04.227Z,41.10
2018-02-19T18:52:32.575Z,47.60
2018-02-19T18:55:00.975Z,48.00
2018-02-19T18:57:30.211Z,39.30
2018-02-19T18:59:59.064Z,38.07
2018-02-19T19:02:27.425Z,43.60
2018-02-19T19:04:55.821Z,40.77
2018-02-19T19:10:58.573Z,38.73
2018-02-19T19:13:27.005Z,41.37
2018-02-19T19:15:55.372Z,38.93
2018-02-19T19:18:23.761Z,43.93
2018-02-19T19:20:52.536Z,46.10
2018-02-19T19:23:20.948Z,35.07
2018-02-19T19:25:49.314Z,43.57
2018-02-19T19:28:17.663Z,42.47
2018-02-19T19:30:46.077Z,48.43
2018-02-19T19:33:14.572Z,43.60
2018-02-19T19:35:42.935Z,46.07
2018-02-19T19:38:11.309Z,41.00
2018-02-19T19:40:39.673Z,45.63
2018-02-19T19:43:08.045Z,48.73
2018-02-19T19:45:36.411Z,53.70
2018-02-19T19:48:04.769Z,47.30
2018-02-19T19:50:33.595Z,48.83
2018-02-19T19:53:01.959Z,60.57
2018-02-19T19:55:30.341Z,56.33
2018-02-19T19:57:58.717Z,57.23
2018-02-19T20:00:27.082Z,61.43
2018-02-19T20:02:55.925Z,51.93
2018-02-19T20:05:24.424Z,57.30
2018-02-19T20:07:52.783Z,58.60
2018-02-19T20:10:21.230Z,48.77
2018-02-19T20:12:49.586Z,54.60
2018-02-19T20:15:18.326Z,56.00
2018-02-19T20:17:46.696Z,43.27
2018-02-19T20:20:15.061Z,42.37
2018-02-19T20:22:43.466Z,44.20
2018-02-19T20:25:11.825Z,44.00
2018-02-19T20:27:40.173Z,40.20
2018-02-19T20:30:08.592Z,41.43
2018-02-19T20:32:36.953Z,39.60
2018-02-19T20:35:05.325Z,39.03
2018-02-19T20:37:33.681Z,47.03
2018-02-19T20:40:02.424Z,41.67
2018-02-19T20:42:30.803Z,43.60
2018-02-19T20:44:59.164Z,42.47
2018-02-19T20:47:27.508Z,47.97
2018-02-19T20:49:56.273Z,48.20
2018-02-19T20:52:25.029Z,49.33
2018-02-19T20:54:53.596Z,46.17
2018-02-19T20:57:21.992Z,42.47
2018-02-19T20:59:50.369Z,39.77
2018-02-19T21:02:18.720Z,49.07
2018-02-19T21:04:47.320Z,53.47
2018-02-19T21:07:15.679Z,54.10
2018-02-19T21:09:44.090Z,45.93
2018-02-19T21:12:12.454Z,39.83
2018-02-19T21:14:40.832Z,48.13
2018-02-19T21:17:09.203Z,40.03
2018-02-19T21:19:37.573Z,41.53
2018-02-19T21:22:05.927Z,39.13
2018-02-19T21:24:34.677Z,38.40
2018-02-19T21:27:03.056Z,38.07
2018-02-19T21:29:31.395Z,38.00
2018-02-19T21:31:59.754Z,42.37
2018-02-19T21:34:28.668Z,51.83
2018-02-19T21:36:57.050Z,44.13
2018-02-19T21:39:25.428Z,43.03
2018-02-19T21:41:53.886Z,50.07
2018-02-19T21:44:22.671Z,48.33
2018-02-19T21:46:51.412Z,48.13
2018-02-19T21:49:19.768Z,42.67
2018-02-19T21:51:48.175Z,47.03
2018-02-19T21:54:16.972Z,43.83
2018-02-19T21:56:45.332Z,46.13
2018-02-19T21:59:13.724Z,43.47
2018-02-19T22:01:42.096Z,44.37
2018-02-19T22:04:10.463Z,45.50
2018-02-19T22:06:38.832Z,40.90
2018-02-19T22:09:07.196Z,41.70
2018-02-19T22:11:35.550Z,46.37
2018-02-19T22:14:04.316Z,52.93
2018-02-19T22:16:32.771Z,47.70
2018-02-19T22:19:01.161Z,47.13
2018-02-19T22:21:29.533Z,47.97
2018-02-19T22:23:57.896Z,69.40
2018-02-19T22:26:26.256Z,47.27
2018-02-19T22:28:54.614Z,60.33
2018-02-19T22:31:23.473Z,56.63
2018-02-19T22:33:51.832Z,46.63
2018-02-19T22:36:20.208Z,50.73
2018-02-19T22:38:48.580Z,51.53
2018-02-19T22:41:16.936Z,54.47
2018-02-19T22:43:45.347Z,57.23
2018-02-19T22:46:13.896Z,48.73
2018-02-19T22:48:42.276Z,55.67
2018-02-19T22:51:10.639Z,50.60
2018-02-19T22:53:39.412Z,51.87
2018-02-19T22:56:07.808Z,47.03
2018-02-19T22:58:36.601Z,47.07
2018-02-19T23:01:04.933Z,52.97
2018-02-19T23:03:33.299Z,50.10
2018-02-19T23:06:01.656Z,54.27
2018-02-19T23:08:30.023Z,61.40
2018-02-19T23:10:58.373Z,52.53
2018-02-19T23:13:28.012Z,55.37
2018-02-19T23:15:56.421Z,50.57
2018-02-19T23:18:24.923Z,57.87
2018-02-19T23:20:53.376Z,55.17
2018-02-19T23:23:21.769Z,52.97
2018-02-19T23:25:50.128Z,57.77
2018-02-19T23:28:18.555Z,55.63
2018-02-19T23:30:47.407Z,54.23
2018-02-19T23:33:15.804Z,63.77
2018-02-19T23:35:44.177Z,47.63
2018-02-19T23:38:12.602Z,58.80
2018-02-19T23:40:41.452Z,56.83
2018-02-19T23:43:09.837Z,64.70
2018-02-19T23:45:38.309Z,53.83
2018-02-19T23:48:06.672Z,51.37
2018-02-19T23:50:35.025Z,66.80
2018-02-19T23:53:03.403Z,54.47
2018-02-19T23:55:32.271Z,57.00
2018-02-19T23:58:01.784Z,68.70
